This is the latest recevied weather packets stored in our database for station/object AK6MW. If no packets are shown the sender has not sent any weather packets the latest 10 day(s).
| Time | Temp. | Humidity | Pressure | Rain* | Wind** | Luminosity | Snow |
|---|---|---|---|---|---|---|---|
| 1777709325 | 8.89° C | 85% | 1017.2 hPa | - | - | - | - |
| 1777706328 | 9.44° C | 82% | 1017.5 hPa | - | - | - | - |
| 1777704526 | 10° C | 81% | 1017.5 hPa | - | - | - | - |
| 1777701526 | 10.56° C | 78% | 1017.3 hPa | - | - | - | - |
| 1777699126 | 11.11° C | 75% | 1017.5 hPa | - | - | - | - |
| 1777697327 | 12.22° C | 70% | 1017.5 hPa | - | - | - | - |
| 1777692525 | 14.44° C | 71% | 1016.4 hPa | - | - | - | - |
| 1777691947 | 14.44° C | 70% | 1016.5 hPa | - | - | - | - |
| 1777691325 | 15° C | 67% | 1016.2 hPa | - | - | - | - |
| 1777688345 | 18.89° C | 52% | 1016.2 hPa | - | - | - | - |
| 1777685325 | 20° C | 50% | 1015.8 hPa | - | - | - | - |
| 1777679925 | 22.78° C | 45% | 1015.5 hPa | - | - | - | - |
| 1777679326 | 22.22° C | 44% | 1015.5 hPa | - | - | - | - |
| 1777675125 | 22.22° C | 45% | 1016 hPa | - | - | - | - |
| 1777674525 | 22.22° C | 47% | 1015.9 hPa | - | - | - | - |
| 1777673325 | 22.78° C | 46% | 1016.4 hPa | - | - | - | - |
| 1777672145 | 22.22° C | 45% | 1016.6 hPa | - | - | - | - |
| 1777666126 | 21.67° C | 51% | 1017 hPa | - | - | - | - |
| 1777665524 | 21.11° C | 50% | 1017.1 hPa | - | - | - | - |
| 1777664924 | 21.11° C | 50% | 1017.3 hPa | - | - | - | - |
| 1777662525 | 21.11° C | 51% | 1017.5 hPa | - | - | - | - |
| 1777661924 | 20.56° C | 55% | 1017.5 hPa | - | - | - | - |
| 1777657127 | 20° C | 53% | 1017.7 hPa | - | - | - | - |
| 1777654728 | 21.11° C | 45% | 1017.8 hPa | - | - | - | - |
| 1777652927 | 20° C | 51% | 1018.1 hPa | - | - | - | - |
* Rain since midnight (hover to see other rain measurements)
** Current wind speed in m/s (hover to see current wind gust speed)